Time;durP1;ratioP1;P1;durP2;ratioP2;P2;SDS_P1;SDS_P2;PMS_P1;PMS_P2;Temp;Humidity;BMP_temperature;BMP_pressure;BME280_temperature;BME280_humidity;BME280_pressure;Samples;Min_cycle;Max_cycle;Signal;HPM_P1;HPM_P2
2021/05/30 00:00:15;;;;;;;12.88;7.30;;;;;;;23.18;35.95;102838.50;5071997;28;20070;-71
2021/05/30 00:02:41;;;;;;;11.32;7.57;;;;;;;23.19;35.73;102834.56;5073538;28;20099;-71
2021/05/30 00:05:08;;;;;;;13.80;6.93;;;;;;;23.21;35.97;102832.25;5074439;28;20570;-71
2021/05/30 00:07:34;;;;;;;11.43;7.78;;;;;;;23.22;35.72;102837.47;5075591;28;20562;-71
2021/05/30 00:10:00;;;;;;;10.63;6.90;;;;;;;23.16;35.96;102827.72;5074292;28;20505;-71
2021/05/30 00:12:26;;;;;;;8.82;6.45;;;;;;;23.21;35.95;102826.69;5075642;28;20103;-71
2021/05/30 00:14:52;;;;;;;12.38;8.10;;;;;;;23.17;35.93;102825.75;5075244;28;20024;-71
2021/05/30 00:17:17;;;;;;;9.10;7.38;;;;;;;22.99;36.49;102825.16;5075261;28;20493;-75
2021/05/30 00:19:44;;;;;;;8.00;6.22;;;;;;;22.96;36.32;102834.22;5075156;28;20029;-71
2021/05/30 00:22:10;;;;;;;9.18;5.25;;;;;;;22.83;36.32;102825.00;5075327;28;20099;-71
2021/05/30 00:24:37;;;;;;;9.38;6.10;;;;;;;22.77;36.46;102829.19;5075353;28;20120;-71
2021/05/30 00:27:04;;;;;;;8.70;4.70;;;;;;;22.70;36.21;102820.56;5075298;28;20029;-71
2021/05/30 00:29:29;;;;;;;5.55;4.50;;;;;;;22.65;36.09;102824.38;5075282;28;20391;-71
2021/05/30 00:31:55;;;;;;;10.57;6.38;;;;;;;22.83;35.61;102813.06;5075207;28;20032;-71
2021/05/30 00:34:21;;;;;;;6.85;5.00;;;;;;;22.85;35.62;102816.28;5075141;28;20648;-71
2021/05/30 00:36:47;;;;;;;10.95;8.68;;;;;;;22.82;35.66;102811.41;5075139;28;20037;-71
2021/05/30 00:39:12;;;;;;;14.90;10.02;;;;;;;22.79;35.72;102810.13;5074920;28;20028;-71
2021/05/30 00:41:38;;;;;;;12.10;9.90;;;;;;;22.81;35.92;102810.59;5074880;28;20033;-71
2021/05/30 00:44:19;;;;;;;12.70;9.55;;;;;;;22.78;35.90;102807.69;5075068;28;20024;-72
2021/05/30 00:46:45;;;;;;;6.70;6.00;;;;;;;22.80;35.65;102808.16;5075009;28;20028;-71
2021/05/30 00:49:10;;;;;;;6.95;5.50;;;;;;;22.65;35.59;102820.78;5074957;28;20099;-72
2021/05/30 00:51:36;;;;;;;8.18;5.53;;;;;;;22.52;35.49;102817.19;5074853;28;20028;-71
2021/05/30 00:54:02;;;;;;;10.48;7.22;;;;;;;22.42;35.28;102809.25;5074858;28;20035;-71
2021/05/30 00:56:27;;;;;;;14.15;8.23;;;;;;;22.31;35.31;102817.22;5074688;28;20481;-71
2021/05/30 00:58:53;;;;;;;12.07;8.13;;;;;;;22.34;35.27;102812.94;5074587;28;20038;-71
2021/05/30 01:01:19;;;;;;;10.45;7.38;;;;;;;22.33;35.52;102808.53;5074681;28;20392;-71
2021/05/30 01:03:44;;;;;;;9.88;7.53;;;;;;;22.34;35.27;102807.38;5074501;28;20029;-76
2021/05/30 01:06:11;;;;;;;11.55;9.68;;;;;;;22.37;35.47;102812.25;5074603;28;20037;-71
2021/05/30 01:08:36;;;;;;;10.57;8.32;;;;;;;22.40;35.37;102814.34;5074627;28;20024;-71
2021/05/30 01:11:05;;;;;;;14.13;7.80;;;;;;;22.36;35.54;102810.63;5074344;28;20036;-71
2021/05/30 01:13:33;;;;;;;7.93;7.13;;;;;;;22.34;35.34;102815.72;5074494;28;20170;-71
2021/05/30 01:15:59;;;;;;;8.90;6.65;;;;;;;22.29;35.29;102808.41;5074100;28;20048;-71
2021/05/30 01:18:26;;;;;;;10.77;7.70;;;;;;;22.21;35.05;102805.69;5074466;28;20103;-71
2021/05/30 01:20:54;;;;;;;11.45;7.78;;;;;;;22.20;35.21;102813.22;5074422;28;20024;-71
2021/05/30 01:23:21;;;;;;;12.38;8.48;;;;;;;22.19;35.32;102806.03;5074324;28;20025;-70
2021/05/30 01:25:47;;;;;;;9.82;8.00;;;;;;;22.17;35.18;102813.13;5073973;28;20491;-71
2021/05/30 01:28:14;;;;;;;12.48;7.68;;;;;;;22.15;35.16;102810.69;5074074;28;20219;-71
2021/05/30 01:30:40;;;;;;;8.73;6.50;;;;;;;22.13;35.29;102811.00;5074384;28;20020;-71
2021/05/30 01:33:06;;;;;;;9.98;7.72;;;;;;;22.11;35.14;102810.53;5074055;28;20036;-74
2021/05/30 01:35:32;;;;;;;7.93;6.70;;;;;;;22.08;35.16;102810.41;5073691;28;20031;-71
2021/05/30 01:37:58;;;;;;;10.23;6.85;;;;;;;22.07;35.07;102815.16;5073706;28;20592;-71
2021/05/30 01:40:24;;;;;;;9.30;7.18;;;;;;;22.02;35.21;102820.09;5073958;28;20111;-71
2021/05/30 01:42:52;;;;;;;11.98;8.80;;;;;;;21.95;35.36;102820.66;5073903;28;20031;-71
2021/05/30 01:45:24;;;;;;;15.32;9.57;;;;;;;21.94;35.16;102818.22;5073824;28;20095;-71
2021/05/30 01:47:49;;;;;;;9.48;7.93;;;;;;;21.96;35.35;102819.50;5072592;28;20029;-71
2021/05/30 01:50:19;;;;;;;11.27;8.13;;;;;;;21.90;35.25;102818.06;5073287;28;20086;-71
2021/05/30 01:52:45;;;;;;;10.88;9.77;;;;;;;21.93;35.38;102817.41;5073671;28;20024;-70
2021/05/30 01:55:21;;;;;;;14.25;10.80;;;;;;;21.94;35.51;102827.38;5073570;28;20432;-71
2021/05/30 01:57:50;;;;;;;13.50;10.32;;;;;;;21.95;35.46;102822.63;5073540;28;20055;-71
2021/05/30 02:00:17;;;;;;;11.90;7.00;;;;;;;22.00;35.61;102825.19;5073564;28;20081;-71
2021/05/30 02:02:49;;;;;;;11.80;9.18;;;;;;;21.94;35.74;102821.81;5073520;28;20024;-71
2021/05/30 02:05:16;;;;;;;13.10;10.93;;;;;;;21.97;35.74;102820.28;5072182;28;20522;-71
2021/05/30 02:07:42;;;;;;;9.05;7.07;;;;;;;22.00;35.66;102822.41;5073353;28;20036;-71
2021/05/30 02:10:10;;;;;;;13.77;9.85;;;;;;;21.89;35.77;102811.69;5073381;28;20024;-71
2021/05/30 02:12:36;;;;;;;8.77;7.82;;;;;;;21.89;35.62;102811.69;5073368;28;20025;-71
2021/05/30 02:15:04;;;;;;;10.45;8.02;;;;;;;21.85;35.61;102821.06;5072935;28;20028;-71
2021/05/30 02:17:30;;;;;;;11.77;10.57;;;;;;;21.80;35.50;102815.69;5072730;28;20155;-77
2021/05/30 02:19:57;;;;;;;11.55;9.73;;;;;;;21.76;35.61;102814.72;5073116;28;20111;-71
2021/05/30 02:22:23;;;;;;;10.40;8.30;;;;;;;21.81;35.47;102815.34;5073185;28;20222;-71
2021/05/30 02:24:49;;;;;;;13.55;8.50;;;;;;;21.79;35.53;102812.09;5072595;28;20025;-71
2021/05/30 02:27:14;;;;;;;13.95;10.40;;;;;;;21.78;35.46;102813.25;5072776;28;20033;-71
2021/05/30 02:29:42;;;;;;;11.40;7.90;;;;;;;21.77;35.42;102811.63;5072975;28;20031;-72
2021/05/30 02:32:11;;;;;;;10.13;6.95;;;;;;;21.77;35.50;102813.59;5073015;28;20387;-71
2021/05/30 02:34:42;;;;;;;9.82;7.47;;;;;;;21.74;35.40;102815.09;5072940;28;20050;-71
2021/05/30 02:37:12;;;;;;;10.75;7.25;;;;;;;21.70;35.50;102822.50;5072885;28;20032;-71
2021/05/30 02:39:38;;;;;;;13.23;10.32;;;;;;;21.65;35.60;102813.53;5072758;28;20095;-72
2021/05/30 02:42:05;;;;;;;12.60;10.52;;;;;;;21.66;35.56;102817.94;5072800;28;20029;-71
2021/05/30 02:44:31;;;;;;;9.50;6.32;;;;;;;21.71;35.55;102817.75;5071468;28;20024;-71
2021/05/30 02:46:57;;;;;;;10.60;9.35;;;;;;;21.68;35.49;102819.22;5071514;28;20036;-72
2021/05/30 02:49:24;;;;;;;12.68;10.95;;;;;;;21.70;35.63;102813.34;5073009;28;20025;-72
2021/05/30 02:51:51;;;;;;;13.38;10.48;;;;;;;21.67;35.78;102811.22;5072726;28;20111;-71
2021/05/30 02:54:17;;;;;;;12.95;11.02;;;;;;;21.58;35.95;102812.09;5072718;28;20054;-70
2021/05/30 02:56:43;;;;;;;12.40;10.90;;;;;;;21.62;35.78;102808.66;5072556;28;20133;-71
2021/05/30 02:59:09;;;;;;;12.93;11.55;;;;;;;21.58;35.89;102814.06;5072385;28;20067;-71
2021/05/30 03:01:34;;;;;;;11.85;10.43;;;;;;;21.55;35.90;102801.66;5072558;28;20531;-71
2021/05/30 03:04:00;;;;;;;15.52;11.05;;;;;;;21.51;35.94;102806.25;5072413;28;20056;-72
2021/05/30 03:06:25;;;;;;;22.63;11.32;;;;;;;21.51;36.04;102800.69;5072517;28;20028;-71
2021/05/30 03:08:52;;;;;;;18.10;12.57;;;;;;;21.46;36.08;102802.84;5072513;28;20485;-71
2021/05/30 03:11:18;;;;;;;12.32;9.15;;;;;;;21.44;36.07;102796.81;5072490;28;20446;-71
2021/05/30 03:13:44;;;;;;;11.77;8.32;;;;;;;21.44;35.91;102791.25;5072705;28;20351;-71
2021/05/30 03:16:09;;;;;;;13.82;9.68;;;;;;;21.40;35.83;102787.53;5072173;28;20059;-71
2021/05/30 03:18:35;;;;;;;13.02;9.00;;;;;;;21.36;35.92;102792.94;5072436;28;20035;-77
2021/05/30 03:21:01;;;;;;;13.48;11.07;;;;;;;21.37;35.86;102791.78;5072451;28;20024;-71
2021/05/30 03:23:26;;;;;;;13.85;12.45;;;;;;;21.43;35.88;102784.88;5072447;28;20081;-71
2021/05/30 03:25:52;;;;;;;14.40;12.63;;;;;;;21.41;36.19;102787.19;5072322;28;20430;-71
2021/05/30 03:28:18;;;;;;;16.55;12.82;;;;;;;21.41;36.22;102791.94;5071913;28;20505;-71
2021/05/30 03:30:44;;;;;;;17.17;15.05;;;;;;;21.37;36.26;102783.44;5071036;28;20039;-72
2021/05/30 03:33:09;;;;;;;19.70;16.00;;;;;;;21.37;36.27;102785.41;5072270;28;20533;-71
2021/05/30 03:35:35;;;;;;;15.32;9.25;;;;;;;21.37;36.20;102780.66;5070016;28;20037;-71
2021/05/30 03:38:02;;;;;;;17.17;13.95;;;;;;;21.37;36.20;102786.22;5058265;28;20075;-77
2021/05/30 03:40:31;;;;;;;15.23;13.60;;;;;;;21.39;36.13;102783.94;5054674;28;20032;-71
2021/05/30 03:42:57;;;;;;;19.25;13.25;;;;;;;21.38;36.19;102787.84;5056183;28;20021;-71
2021/05/30 03:45:24;;;;;;;18.10;14.82;;;;;;;21.39;36.16;102786.72;5056092;28;20040;-72
2021/05/30 03:47:51;;;;;;;26.42;16.55;;;;;;;21.37;36.27;102785.41;5056107;28;20025;-71
2021/05/30 03:50:17;;;;;;;64.20;17.58;;;;;;;21.32;36.39;102780.88;5056088;28;20368;-71
2021/05/30 03:52:43;;;;;;;65.00;18.63;;;;;;;21.19;36.46;102773.56;5055805;28;20415;-71
2021/05/30 03:55:10;;;;;;;51.47;16.92;;;;;;;21.14;36.60;102768.19;5055675;28;20032;-71
2021/05/30 03:57:36;;;;;;;17.63;13.80;;;;;;;21.12;36.57;102770.50;5054350;28;20112;-71
2021/05/30 04:00:09;;;;;;;26.83;15.82;;;;;;;21.12;36.63;102771.31;5055755;28;20083;-72
2021/05/30 04:02:34;;;;;;;16.35;12.63;;;;;;;21.19;36.35;102766.03;5055845;28;20025;-71
2021/05/30 04:05:00;;;;;;;24.80;17.92;;;;;;;21.12;36.63;102765.75;5055696;28;20356;-71
2021/05/30 04:07:25;;;;;;;26.00;16.92;;;;;;;21.12;36.64;102771.31;5055723;28;20032;-71
2021/05/30 04:09:51;;;;;;;24.98;16.85;;;;;;;21.18;36.52;102772.75;5055684;28;20025;-71
2021/05/30 04:12:17;;;;;;;34.15;21.30;;;;;;;21.16;36.69;102766.72;5054349;28;20650;-71
2021/05/30 04:14:42;;;;;;;37.25;23.63;;;;;;;21.27;36.43;102770.75;5055615;28;20021;-71
2021/05/30 04:17:08;;;;;;;43.50;27.08;;;;;;;21.27;36.53;102769.91;5055147;28;20099;-70
2021/05/30 04:19:34;;;;;;;72.25;32.28;;;;;;;21.27;36.57;102772.69;5054010;28;20074;-71
2021/05/30 04:22:00;;;;;;;75.90;32.60;;;;;;;21.27;36.61;102764.34;5055424;28;20387;-71
2021/05/30 04:24:26;;;;;;;52.72;29.15;;;;;;;21.24;36.59;102759.47;5055399;28;20025;-71
2021/05/30 04:26:51;;;;;;;52.88;31.58;;;;;;;;;;5055364;28;20033;-71
2021/05/30 04:29:17;;;;;;;70.40;30.90;;;;;;;21.30;36.87;102761.72;5055320;28;20036;-70
2021/05/30 04:31:43;;;;;;;67.57;31.23;;;;;;;21.31;36.67;102763.38;5055273;28;20075;-70
2021/05/30 04:34:08;;;;;;;73.75;33.03;;;;;;;21.36;36.71;102767.09;5055287;28;20029;-70
2021/05/30 04:36:34;;;;;;;91.75;30.08;;;;;;;21.42;36.63;102763.78;5055129;28;20378;-70
2021/05/30 04:39:00;;;;;;;69.50;27.48;;;;;;;21.35;36.82;102759.91;5055062;28;20481;-71
2021/05/30 04:41:25;;;;;;;109.03;30.30;;;;;;;21.35;36.77;102766.28;5054911;28;20021;-73
2021/05/30 04:43:51;;;;;;;79.28;26.23;;;;;;;21.39;36.79;102764.47;5055001;28;20112;-71
2021/05/30 04:46:16;;;;;;;50.92;21.08;;;;;;;21.45;36.66;102765.06;5055043;28;20496;-71
2021/05/30 04:48:42;;;;;;;89.05;19.65;;;;;;;21.45;36.80;102757.53;5054229;28;20082;-71
2021/05/30 04:51:14;;;;;;;88.88;22.05;;;;;;;21.51;36.64;102764.53;5055154;28;20025;-71
2021/05/30 04:53:41;;;;;;;42.53;20.92;;;;;;;21.56;36.71;102763.53;5054914;28;20029;-71
2021/05/30 04:56:12;;;;;;;64.75;22.77;;;;;;;21.56;36.83;102757.97;5054579;28;20104;-78
2021/05/30 04:58:38;;;;;;;55.65;21.50;;;;;;;21.66;36.94;102757.53;5054548;28;20059;-73
2021/05/30 05:01:06;;;;;;;51.03;19.80;;;;;;;21.69;36.64;102756.88;5054522;28;20028;-71
2021/05/30 05:03:33;;;;;;;66.60;20.13;;;;;;;21.72;36.72;102763.72;5054692;28;20059;-71
2021/05/30 05:05:58;;;;;;;65.75;17.65;;;;;;;21.77;36.55;102755.19;5053292;28;20021;-71
2021/05/30 05:08:25;;;;;;;38.00;16.42;;;;;;;21.82;36.55;102749.38;5054347;28;20553;-71
2021/05/30 05:10:51;;;;;;;25.40;13.15;;;;;;;21.88;36.50;102748.03;5054634;28;20047;-71
2021/05/30 05:13:18;;;;;;;33.92;13.90;;;;;;;21.80;36.82;102748.91;5054508;28;20025;-71
2021/05/30 05:15:52;;;;;;;13.65;11.15;;;;;;;21.89;36.79;102744.06;5052762;28;20437;-71
2021/05/30 05:18:20;;;;;;;12.32;9.95;;;;;;;21.90;36.83;102740.13;5054418;28;20079;-72
2021/05/30 05:20:46;;;;;;;13.00;10.32;;;;;;;21.91;36.84;102740.94;5054399;28;20467;-70
2021/05/30 05:23:21;;;;;;;12.13;10.00;;;;;;;22.08;36.57;102747.22;5054235;28;20068;-71
2021/05/30 05:25:52;;;;;;;10.63;9.05;;;;;;;22.18;36.52;102740.38;5054328;28;20391;-71
2021/05/30 05:28:17;;;;;;;13.45;9.38;;;;;;;22.17;36.76;102738.75;5054075;28;20032;-70
2021/05/30 05:30:43;;;;;;;14.63;10.63;;;;;;;22.22;36.64;102744.13;5052974;28;20028;-71
2021/05/30 05:33:09;;;;;;;20.65;16.13;;;;;;;22.26;36.54;102738.66;5052896;28;20622;-71
2021/05/30 05:35:35;;;;;;;19.88;14.65;;;;;;;22.30;36.47;102734.84;5052767;28;20491;-71
2021/05/30 05:38:02;;;;;;;17.15;13.52;;;;;;;22.33;36.55;102734.16;5054026;28;20052;-74
2021/05/30 05:40:29;;;;;;;20.80;15.02;;;;;;;22.30;36.86;102739.59;5054022;28;20475;-70
2021/05/30 05:42:55;;;;;;;15.85;13.25;;;;;;;22.40;36.68;102728.00;5053776;28;20021;-71
2021/05/30 05:45:23;;;;;;;18.92;14.20;;;;;;;22.50;36.57;102733.13;5053727;28;20610;-71
2021/05/30 05:47:50;;;;;;;16.30;12.85;;;;;;;22.71;36.73;102731.06;5053801;28;20040;-71
2021/05/30 05:50:18;;;;;;;13.45;11.60;;;;;;;23.06;36.61;102735.38;5053816;28;20021;-71
2021/05/30 05:52:45;;;;;;;12.70;11.40;;;;;;;23.32;36.68;102732.19;5053648;28;20052;-71
2021/05/30 05:55:12;;;;;;;13.93;10.30;;;;;;;23.60;36.82;102721.91;5053598;28;20653;-71
2021/05/30 05:57:40;;;;;;;14.27;10.18;;;;;;;23.87;36.67;102725.03;5053553;28;20028;-71
2021/05/30 06:00:13;;;;;;;15.65;11.00;;;;;;;24.10;36.31;102714.88;5052823;28;20052;-71
2021/05/30 06:02:39;;;;;;;11.95;10.10;;;;;;;24.30;36.06;102713.84;5053626;28;20108;-71
2021/05/30 06:05:06;;;;;;;10.75;9.05;;;;;;;24.43;36.37;102716.59;5053492;28;20024;-77
2021/05/30 06:07:33;;;;;;;10.27;8.93;;;;;;;24.51;36.18;102710.00;5053380;28;20071;-71
2021/05/30 06:09:58;;;;;;;13.13;10.00;;;;;;;24.55;36.60;102713.69;5053440;28;20029;-71
2021/05/30 06:12:24;;;;;;;10.85;9.45;;;;;;;24.74;36.55;102713.75;5053164;28;20036;-71
2021/05/30 06:14:49;;;;;;;12.50;10.43;;;;;;;24.83;36.66;102714.38;5053323;28;20029;-71
2021/05/30 06:17:15;;;;;;;13.63;9.93;;;;;;;24.95;36.52;102712.66;5052987;28;20045;-71
2021/05/30 06:19:40;;;;;;;12.50;11.05;;;;;;;25.03;36.48;102717.25;5053132;28;20032;-71
2021/05/30 06:22:07;;;;;;;11.82;10.00;;;;;;;25.23;36.28;102718.09;5053194;28;20024;-71
2021/05/30 06:24:34;;;;;;;11.65;9.45;;;;;;;25.25;36.40;102719.38;5053107;28;20029;-71
2021/05/30 06:27:01;;;;;;;12.45;10.85;;;;;;;25.42;36.58;102716.13;5053213;28;20037;-76
2021/05/30 06:29:26;;;;;;;11.07;9.43;;;;;;;25.56;36.72;102718.41;5051772;28;20033;-71
2021/05/30 06:31:52;;;;;;;10.00;8.50;;;;;;;25.72;36.76;102721.16;5053033;28;20029;-71
2021/05/30 06:34:18;;;;;;;17.17;9.10;;;;;;;25.67;36.96;102716.63;5052954;28;20048;-71
2021/05/30 06:36:47;;;;;;;8.30;7.50;;;;;;;25.88;36.96;102713.47;5052823;28;20033;-72
2021/05/30 06:39:12;;;;;;;7.95;7.15;;;;;;;26.01;36.54;102705.72;5056819;28;20040;-71
2021/05/30 06:41:38;;;;;;;10.43;7.03;;;;;;;26.06;36.86;102711.00;5071926;28;20021;-74
2021/05/30 06:44:05;;;;;;;7.30;5.85;;;;;;;26.16;36.66;102701.19;5071775;28;20024;-71
2021/05/30 06:46:35;;;;;;;11.23;6.30;;;;;;;26.27;36.37;102702.19;5069705;28;20073;-70
2021/05/30 06:49:01;;;;;;;5.95;5.07;;;;;;;26.29;36.79;102699.81;5071666;28;20071;-73
2021/05/30 06:51:29;;;;;;;11.18;5.72;;;;;;;26.44;36.08;102707.31;5071584;28;20040;-72
2021/05/30 06:53:56;;;;;;;12.20;6.15;;;;;;;26.48;36.37;102704.56;5071276;28;20020;-71
2021/05/30 06:56:22;;;;;;;8.65;5.97;;;;;;;26.55;35.98;102704.69;5071316;28;20024;-71
2021/05/30 06:58:47;;;;;;;8.00;5.85;;;;;;;26.60;36.11;102693.16;5070130;28;20093;-72
2021/05/30 07:01:14;;;;;;;6.95;5.65;;;;;;;26.66;36.18;102699.25;5070461;28;20466;-72
2021/05/30 07:03:40;;;;;;;13.10;7.07;;;;;;;26.73;36.11;102708.56;5070643;28;20025;-72
2021/05/30 07:06:06;;;;;;;6.18;4.80;;;;;;;26.81;36.09;102704.69;5071204;28;20375;-71
2021/05/30 07:08:31;;;;;;;8.63;4.88;;;;;;;26.85;35.96;102710.38;5071659;28;20024;-72
2021/05/30 07:10:57;;;;;;;6.78;4.40;;;;;;;26.87;36.03;102710.78;5071057;28;20032;-72
2021/05/30 07:13:23;;;;;;;14.80;6.82;;;;;;;26.83;36.10;102707.94;5067815;28;20066;-79
2021/05/30 07:15:51;;;;;;;7.75;5.80;;;;;;;26.86;36.27;102703.56;5052621;28;20391;-70
2021/05/30 07:18:20;;;;;;;7.13;4.47;;;;;;;27.00;35.75;102706.59;5049205;28;20036;-72
2021/05/30 07:20:47;;;;;;;6.23;5.00;;;;;;;26.94;35.63;102708.09;5049962;28;20033;-72
2021/05/30 07:23:14;;;;;;;7.30;4.95;;;;;;;27.14;35.46;102717.22;5048914;28;20392;-74
2021/05/30 07:25:40;;;;;;;5.32;4.68;;;;;;;27.17;35.55;102705.22;5050672;28;20036;-78
2021/05/30 07:28:06;;;;;;;5.28;4.78;;;;;;;27.19;35.52;102707.66;5049580;28;20029;-72
2021/05/30 07:30:32;;;;;;;7.78;5.47;;;;;;;27.13;35.57;102703.56;5049874;28;20460;-72
2021/05/30 07:32:58;;;;;;;7.25;4.13;;;;;;;27.12;35.34;102705.56;5049728;28;20036;-73
2021/05/30 07:35:24;;;;;;;6.80;4.10;;;;;;;27.25;34.97;102712.56;5048787;28;20037;-71
2021/05/30 07:37:49;;;;;;;8.90;4.78;;;;;;;27.15;35.23;102709.63;5050026;28;20104;-73
2021/05/30 07:40:17;;;;;;;8.95;5.47;;;;;;;27.32;35.00;102706.22;5052843;28;20094;-77
2021/05/30 07:42:46;;;;;;;6.55;4.40;;;;;;;27.32;35.03;102707.03;5070046;28;20402;-77
2021/05/30 07:45:12;;;;;;;6.95;4.07;;;;;;;27.48;34.90;102704.03;5095025;28;20546;-76
2021/05/30 07:47:38;;;;;;;4.97;3.83;;;;;;;27.45;34.86;102710.41;5070409;28;20024;-73
2021/05/30 07:50:05;;;;;;;4.97;3.55;;;;;;;27.40;34.61;102707.94;5069788;27;20124;-73
2021/05/30 07:52:31;;;;;;;6.20;4.22;;;;;;;27.54;34.44;102708.13;5070526;28;20021;-76
2021/05/30 07:54:56;;;;;;;5.72;4.10;;;;;;;27.63;34.48;102710.63;5069794;27;20037;-72
2021/05/30 07:57:22;;;;;;;5.28;3.80;;;;;;;27.65;34.18;102711.84;5068356;28;20044;-73
2021/05/30 07:59:47;;;;;;;5.28;4.30;;;;;;;27.74;34.37;102711.59;5068996;27;20090;-77
2021/05/30 08:02:13;;;;;;;6.30;4.15;;;;;;;27.87;34.11;102707.31;5068576;28;20032;-76
2021/05/30 08:04:38;;;;;;;7.60;4.32;;;;;;;27.88;34.31;102713.72;5069131;28;20418;-76
2021/05/30 08:07:04;;;;;;;5.95;4.80;;;;;;;27.85;33.91;102711.72;5068224;28;20039;-76
2021/05/30 08:09:30;;;;;;;7.55;3.95;;;;;;;27.88;33.93;102710.91;5067199;28;20372;-77
2021/05/30 08:11:58;;;;;;;7.25;4.50;;;;;;;27.69;34.22;102719.56;5069970;28;20425;-74
2021/05/30 08:14:24;;;;;;;5.65;4.38;;;;;;;27.75;34.12;102713.22;5068245;27;20043;-76
2021/05/30 08:16:50;;;;;;;6.10;3.95;;;;;;;27.96;33.78;102718.22;5068901;28;20458;-76
2021/05/30 08:19:16;;;;;;;6.43;4.15;;;;;;;27.83;33.82;102711.28;5067957;28;20049;-71
2021/05/30 08:21:42;;;;;;;8.00;4.50;;;;;;;28.01;33.80;102717.09;5071010;28;20115;-72
2021/05/30 08:24:09;;;;;;;8.05;4.47;;;;;;;27.99;33.82;102722.28;5070038;27;20538;-72
2021/05/30 08:26:34;;;;;;;7.22;4.20;;;;;;;27.95;33.87;102715.81;5072266;28;20387;-75
2021/05/30 08:29:00;;;;;;;10.13;4.95;;;;;;;27.93;33.84;102721.81;5073033;28;20028;-72
2021/05/30 08:31:26;;;;;;;11.20;5.03;;;;;;;27.93;34.00;102719.81;5071331;28;20033;-71
2021/05/30 08:33:51;;;;;;;7.18;4.30;;;;;;;27.96;33.89;102721.03;5069254;27;20492;-73
2021/05/30 08:36:17;;;;;;;7.45;4.70;;;;;;;28.13;33.62;102711.19;5070533;28;20534;-73
2021/05/30 08:38:43;;;;;;;5.65;4.35;;;;;;;28.16;33.44;102719.66;5070721;28;20055;-79
2021/05/30 08:41:10;;;;;;;8.05;4.80;;;;;;;28.20;33.42;102723.31;5070284;28;20045;-74
2021/05/30 08:43:35;;;;;;;5.97;4.47;;;;;;;28.18;33.54;102717.25;5069369;28;20481;-74
2021/05/30 08:46:01;;;;;;;7.82;4.47;;;;;;;28.16;33.50;102722.47;5070207;27;20101;-74
2021/05/30 08:48:27;;;;;;;5.07;4.10;;;;;;;28.18;33.46;102720.06;5072420;28;20027;-75
2021/05/30 08:51:05;;;;;;;7.40;4.68;;;;;;;28.33;33.20;102718.22;5072354;27;20634;-71
2021/05/30 08:53:33;;;;;;;8.65;4.47;;;;;;;28.52;32.97;102713.56;5069006;28;20028;-70
2021/05/30 08:56:00;;;;;;;4.97;3.75;;;;;;;28.59;33.06;102714.44;5071215;27;20047;-71
2021/05/30 08:58:42;;;;;;;7.28;4.32;;;;;;;28.56;33.29;102714.38;5071375;28;20077;-72
2021/05/30 09:01:22;;;;;;;12.25;4.50;;;;;;;28.46;33.16;102711.09;5071103;27;20043;-73
2021/05/30 09:04:04;;;;;;;5.47;4.18;;;;;;;28.51;32.86;102714.78;5072173;28;20024;-71
2021/05/30 09:06:31;;;;;;;7.63;4.32;;;;;;;28.61;32.83;102720.47;5069038;28;20120;-73
2021/05/30 09:08:57;;;;;;;6.75;4.32;;;;;;;28.81;32.61;102717.41;5071690;28;20028;-71
2021/05/30 09:11:44;;;;;;;7.07;3.92;;;;;;;28.95;32.35;102725.97;5082227;27;20043;-72
2021/05/30 09:14:15;;;;;;;4.93;3.88;;;;;;;29.14;32.39;102711.59;5090126;28;20028;-76
2021/05/30 09:16:53;;;;;;;8.13;4.68;;;;;;;29.07;32.39;102717.19;5088686;28;20065;-71
2021/05/30 09:19:33;;;;;;;4.78;3.88;;;;;;;29.06;32.59;102714.78;5092526;28;20035;-74
2021/05/30 09:22:19;;;;;;;5.47;4.32;;;;;;;29.14;32.27;102705.97;5091741;28;20566;-73
2021/05/30 09:24:47;;;;;;;9.35;5.03;;;;;;;29.19;32.07;102704.78;5091005;28;20061;-74
2021/05/30 09:27:13;;;;;;;5.85;4.22;;;;;;;29.17;32.38;102699.56;5060769;28;20123;-73
2021/05/30 09:29:39;;;;;;;33.80;6.95;;;;;;;29.16;32.04;102697.13;5054140;28;20150;-71
2021/05/30 09:32:05;;;;;;;8.10;4.28;;;;;;;29.05;32.25;102690.66;5053970;28;20036;-71
2021/05/30 09:34:35;;;;;;;6.93;4.57;;;;;;;29.17;32.18;102695.91;5054021;28;20028;-71
2021/05/30 09:37:01;;;;;;;6.72;4.53;;;;;;;29.15;31.89;102695.50;5053885;28;20025;-70
2021/05/30 09:39:37;;;;;;;6.57;3.90;;;;;;;29.25;31.94;102689.16;5054077;28;20536;-71
2021/05/30 09:42:32;;;;;;;8.23;4.65;;;;;;;29.25;31.95;102697.59;5052808;28;20052;-77
2021/05/30 09:45:00;;;;;;;8.50;4.93;;;;;;;29.41;31.58;102688.81;5052656;28;20021;-72
2021/05/30 09:47:45;;;;;;;15.32;5.70;;;;;;;29.20;31.46;102695.16;5053818;28;20029;-72
2021/05/30 09:50:17;;;;;;;9.48;4.80;;;;;;;29.55;31.32;102694.53;5053815;28;20428;-72
2021/05/30 09:52:47;;;;;;;7.28;4.60;;;;;;;29.55;31.84;102691.72;5053597;28;20032;-72
2021/05/30 09:55:32;;;;;;;8.25;4.10;;;;;;;29.57;31.99;102694.91;5053851;28;20622;-71
2021/05/30 09:58:13;;;;;;;9.10;4.65;;;;;;;29.64;31.59;102691.31;5052407;28;20029;-71
2021/05/30 10:00:40;;;;;;;6.30;4.65;;;;;;;29.57;31.44;102692.09;5052197;28;20032;-72
2021/05/30 10:03:07;;;;;;;6.35;5.07;;;;;;;29.64;31.44;102694.94;5068737;28;20028;-72
2021/05/30 10:05:35;;;;;;;11.93;5.75;;;;;;;29.78;31.17;102697.00;5053458;28;20028;-73
2021/05/30 10:08:01;;;;;;;6.07;4.65;;;;;;;29.78;31.11;102692.16;5053497;28;20550;-72
2021/05/30 10:10:28;;;;;;;8.88;5.75;;;;;;;29.76;31.22;102694.56;5051920;28;20119;-72
2021/05/30 10:12:53;;;;;;;13.35;5.95;;;;;;;29.99;31.06;102697.00;5052023;28;20025;-72
2021/05/30 10:15:20;;;;;;;6.30;5.55;;;;;;;30.15;31.11;102688.19;5053310;28;20028;-72
2021/05/30 10:17:47;;;;;;;7.88;5.47;;;;;;;30.30;30.90;102692.63;5053086;28;20041;-77
2021/05/30 10:20:16;;;;;;;11.25;7.03;;;;;;;30.48;30.96;102683.38;5053220;28;20421;-72
2021/05/30 10:22:43;;;;;;;8.73;6.05;;;;;;;30.43;30.65;102686.59;5051817;28;20021;-71
2021/05/30 10:25:10;;;;;;;10.30;5.85;;;;;;;30.52;30.81;102689.81;5052957;28;20361;-72
2021/05/30 10:27:37;;;;;;;14.80;6.68;;;;;;;30.47;31.04;102693.06;5053100;28;20068;-72
2021/05/30 10:30:10;;;;;;;6.97;6.15;;;;;;;30.53;30.06;102685.78;5052988;28;20383;-72
2021/05/30 10:32:37;;;;;;;8.55;6.07;;;;;;;30.44;30.38;102693.84;5052979;28;20021;-72
2021/05/30 10:35:10;;;;;;;7.18;6.13;;;;;;;30.42;30.21;102674.50;5052685;28;20029;-72
2021/05/30 10:37:49;;;;;;;9.82;7.22;;;;;;;30.79;30.07;102682.56;5051502;28;20136;-72
2021/05/30 10:40:21;;;;;;;9.23;6.50;;;;;;;30.56;29.68;102677.31;5052937;28;20556;-72
2021/05/30 10:43:20;;;;;;;16.35;7.95;;;;;;;30.57;30.11;102675.31;5052912;28;20143;-72
2021/05/30 10:45:51;;;;;;;13.53;7.27;;;;;;;30.52;30.01;102673.69;5040337;28;20484;-72
2021/05/30 10:48:19;;;;;;;9.93;6.95;;;;;;;30.68;29.72;102673.28;5052873;28;20748;-72
2021/05/30 10:51:09;;;;;;;10.90;7.43;;;;;;;30.69;29.71;102668.47;5052585;28;20114;-72
2021/05/30 10:53:41;;;;;;;;;;;;;;;30.56;30.38;102668.06;5053081;28;20025;-72
2021/05/30 10:56:18;;;;;;;13.25;7.25;;;;;;;30.46;30.44;102669.69;5052581;28;19920;-72
2021/05/30 10:59:04;;;;;;;7.38;6.18;;;;;;;30.75;29.99;102664.81;5052540;28;20032;-72
2021/05/30 11:01:40;;;;;;;11.07;7.05;;;;;;;30.78;29.81;102657.56;5048183;28;20048;-72
2021/05/30 11:06:56;;;;;;;10.90;6.90;;;;;;;30.96;29.80;102649.03;5052624;28;20434;-72
2021/05/30 11:09:23;;;;;;;19.73;8.43;;;;;;;30.92;29.92;102649.88;5052561;28;20024;-76
2021/05/30 11:12:19;;;;;;;9.90;7.20;;;;;;;31.02;29.60;102650.22;5055010;28;20024;-76
2021/05/30 11:15:10;;;;;;;10.80;7.70;;;;;;;31.04;29.36;102650.63;5072498;28;20487;-72
2021/05/30 11:17:43;;;;;;;8.63;7.65;;;;;;;31.10;29.61;102646.97;5071942;28;20041;-74
2021/05/30 11:20:15;;;;;;;9.57;7.93;;;;;;;31.14;29.68;102646.97;5072355;28;20110;-72
2021/05/30 11:22:59;;;;;;;9.00;8.10;;;;;;;31.09;29.56;102651.00;5072316;28;20021;-78
2021/05/30 11:25:30;;;;;;;8.55;6.45;;;;;;;31.06;29.78;102643.38;5072270;28;20031;-73